This is the latest recevied weather packets stored in our database for station/object W7OG-10. If no packets are shown the sender has not sent any weather packets the latest 10 day(s).
| Time | Temp. | Humidity | Pressure | Rain* | Wind** | Luminosity | Snow |
|---|---|---|---|---|---|---|---|
| 1777574916 | 27.22° C | 88% | 1019.5 hPa | 0 mm | - | - | - |
| 1777571916 | 26.67° C | 93% | 1019.9 hPa | 0 mm | - | - | - |
| 1777571316 | 26.67° C | 93% | 1019.9 hPa | 0 mm | - | - | - |
| 1777570116 | 26.11° C | 94% | 1020 hPa | 0 mm | - | - | - |
| 1777569516 | 26.11° C | 94% | 1019.9 hPa | 0 mm | - | - | - |
| 1777568916 | 26.11° C | 96% | 1019.8 hPa | 0 mm | - | - | - |
| 1777568316 | 26.11° C | 96% | 1019.6 hPa | 0 mm | - | - | - |
| 1777564117 | 25° C | 98% | 1021.2 hPa | 0 mm | - | - | - |
| 1777563516 | 25° C | 99% | 1021.6 hPa | 0 mm | - | - | - |
| 1777562937 | 25° C | 99% | 1021.8 hPa | 0 mm | - | - | - |
| 1777557517 | 23.33° C | 100% | 1022.4 hPa | 0 mm | - | - | - |
| 1777555738 | 22.78° C | 100% | 1022.4 hPa | 0 mm | - | - | - |
| 1777553318 | 22.78° C | 100% | 1022.4 hPa | 0 mm | - | - | - |
| 1777552117 | 22.78° C | 100% | 1022.4 hPa | 0 mm | - | - | - |
| 1777546718 | 22.78° C | 100% | 1022.4 hPa | 0 mm | - | - | - |
| 1777541918 | 22.78° C | 100% | 1022.4 hPa | 0 mm | - | - | - |
| 1777541319 | 22.78° C | 100% | 1022.4 hPa | 0 mm | - | - | - |
| 1777538918 | 23.33° C | 100% | 1022.5 hPa | 0 mm | - | - | - |
| 1777535919 | 23.33° C | 99% | 1022.5 hPa | 0 mm | - | - | - |
| 1777534119 | 23.89° C | 99% | 1022.5 hPa | 0 mm | - | - | - |
| 1777533539 | 23.89° C | 99% | 1022.6 hPa | 0 mm | - | - | - |
| 1777531720 | 23.89° C | 98% | 1022.4 hPa | 0 mm | - | - | - |
| 1777528719 | 23.89° C | 97% | 1022.3 hPa | 0 mm | - | - | - |
| 1777526920 | 23.89° C | 97% | 1022.2 hPa | 0 mm | - | - | - |
| 1777526319 | 23.89° C | 97% | 1022.1 hPa | 0 mm | - | - | - |
* Rain latest hour (hover to see other rain measurements)
** Current wind speed in m/s (hover to see current wind gust speed)